createdAt,value
2023-03-19T00:01:32.871Z,47.67
2023-03-19T00:04:01.010Z,32.23
2023-03-19T00:06:29.188Z,36.50
2023-03-19T00:09:00.748Z,37.50
2023-03-19T00:11:29.053Z,43.33
2023-03-19T00:13:58.192Z,40.43
2023-03-19T00:16:27.051Z,35.47
2023-03-19T00:18:59.833Z,30.53
2023-03-19T00:21:30.679Z,36.33
2023-03-19T00:24:02.122Z,33.13
2023-03-19T00:26:34.562Z,34.70
2023-03-19T00:29:06.693Z,29.97
2023-03-19T00:31:35.651Z,29.00
2023-03-19T00:34:06.724Z,25.40
2023-03-19T00:36:35.274Z,23.90
2023-03-19T00:39:04.145Z,29.63
2023-03-19T00:41:32.837Z,27.53
2023-03-19T00:44:03.179Z,26.07
2023-03-19T00:46:36.930Z,24.00
2023-03-19T00:49:04.981Z,25.13
2023-03-19T00:51:33.099Z,25.47
2023-03-19T00:54:01.776Z,23.40
2023-03-19T00:56:32.469Z,25.30
2023-03-19T00:59:01.991Z,21.73
2023-03-19T01:01:29.886Z,23.07
2023-03-19T01:03:59.950Z,19.67
2023-03-19T01:06:29.969Z,17.70
2023-03-19T01:08:59.325Z,19.27
2023-03-19T01:11:28.564Z,19.63
2023-03-19T01:13:57.904Z,17.90
2023-03-19T01:16:26.872Z,18.87
2023-03-19T01:18:56.111Z,19.07
2023-03-19T01:21:26.034Z,19.80
2023-03-19T01:23:55.081Z,23.60
2023-03-19T01:26:25.587Z,20.37
2023-03-19T01:28:55.727Z,19.63
2023-03-19T01:31:23.926Z,20.57
2023-03-19T01:33:56.215Z,22.73
2023-03-19T01:36:25.732Z,22.57
2023-03-19T01:38:56.221Z,18.60
2023-03-19T01:41:25.237Z,19.60
2023-03-19T01:43:54.641Z,24.50
2023-03-19T01:46:31.350Z,22.07
2023-03-19T01:49:04.989Z,24.07
2023-03-19T01:51:40.589Z,24.63
2023-03-19T01:54:16.824Z,19.40
2023-03-19T01:56:52.884Z,17.93
2023-03-19T01:59:24.357Z,20.87
2023-03-19T02:01:58.614Z,19.33
2023-03-19T02:04:33.527Z,18.60
2023-03-19T02:07:04.571Z,17.90
2023-03-19T02:09:35.516Z,18.47
2023-03-19T02:12:03.709Z,16.90
2023-03-19T02:14:33.687Z,21.93
2023-03-19T02:17:01.983Z,19.03
2023-03-19T02:19:47.102Z,15.83
2023-03-19T02:22:23.482Z,18.90
2023-03-19T02:24:59.612Z,18.17
2023-03-19T02:27:31.311Z,18.27
2023-03-19T02:29:59.966Z,18.17
2023-03-19T02:32:29.740Z,16.87
2023-03-19T02:34:59.620Z,17.93
2023-03-19T02:37:34.443Z,18.83
2023-03-19T02:40:08.068Z,18.90
2023-03-19T02:42:38.420Z,17.07
2023-03-19T02:45:09.113Z,16.90
2023-03-19T02:47:39.683Z,17.83
2023-03-19T02:50:11.579Z,17.70
2023-03-19T02:52:44.052Z,19.57
2023-03-19T02:55:14.456Z,18.87
2023-03-19T02:57:48.955Z,15.83
2023-03-19T03:00:18.885Z,17.00
2023-03-19T03:02:48.316Z,14.97
2023-03-19T03:05:16.402Z,13.47
2023-03-19T03:07:45.841Z,19.20
2023-03-19T03:10:14.125Z,15.00
2023-03-19T03:12:44.569Z,14.87
2023-03-19T03:15:15.389Z,16.77
2023-03-19T03:17:44.990Z,17.20
2023-03-19T03:20:18.204Z,19.13
2023-03-19T03:22:49.012Z,16.60
2023-03-19T03:25:17.706Z,17.17
2023-03-19T03:27:46.157Z,18.50
2023-03-19T03:30:17.616Z,16.73
2023-03-19T03:32:49.062Z,19.03
2023-03-19T03:35:21.966Z,20.07
2023-03-19T03:37:50.710Z,18.03
2023-03-19T03:40:20.499Z,18.67
2023-03-19T03:42:50.232Z,13.77
2023-03-19T03:45:20.051Z,14.40
2023-03-19T03:47:50.884Z,21.30
2023-03-19T03:50:20.142Z,12.93
2023-03-19T03:52:48.244Z,17.27
2023-03-19T03:55:29.181Z,16.90
2023-03-19T03:57:57.441Z,15.87
2023-03-19T04:00:28.739Z,15.60
2023-03-19T04:02:58.249Z,17.60
2023-03-19T04:05:41.296Z,15.20
2023-03-19T04:08:09.722Z,16.07
2023-03-19T04:10:45.937Z,15.20
2023-03-19T04:13:14.449Z,15.30
2023-03-19T04:15:45.573Z,14.13
2023-03-19T04:18:14.769Z,18.77
2023-03-19T04:20:46.814Z,15.77
2023-03-19T04:23:14.858Z,15.80
2023-03-19T04:25:43.114Z,16.60
2023-03-19T04:28:12.433Z,14.97
2023-03-19T04:30:43.529Z,15.27
2023-03-19T04:33:21.879Z,16.37
2023-03-19T04:35:51.134Z,18.23
2023-03-19T04:38:20.224Z,15.50
2023-03-19T04:40:49.718Z,16.07
2023-03-19T04:43:19.044Z,16.77
2023-03-19T04:45:50.155Z,18.30
2023-03-19T04:48:20.650Z,17.30
2023-03-19T04:50:57.345Z,15.47
2023-03-19T04:53:25.985Z,17.70
2023-03-19T04:55:57.944Z,12.63
2023-03-19T04:58:25.797Z,11.97
2023-03-19T05:00:54.510Z,10.90
2023-03-19T05:03:25.215Z,9.90
2023-03-19T05:05:54.369Z,11.83
2023-03-19T05:08:23.047Z,11.07
2023-03-19T05:10:57.022Z,11.53
2023-03-19T05:13:25.596Z,14.23
2023-03-19T05:15:57.168Z,12.47
2023-03-19T05:18:27.478Z,11.30
2023-03-19T05:20:57.648Z,12.40
2023-03-19T05:23:26.662Z,13.47
2023-03-19T05:25:54.696Z,9.20
2023-03-19T05:28:23.060Z,9.00
2023-03-19T05:30:54.242Z,10.13
2023-03-19T05:33:22.546Z,8.43
2023-03-19T05:35:52.709Z,12.10
2023-03-19T05:38:20.936Z,11.10
2023-03-19T05:40:51.847Z,9.43
2023-03-19T05:43:22.062Z,12.67
2023-03-19T05:45:54.807Z,10.73
2023-03-19T05:48:24.636Z,11.10
2023-03-19T05:50:56.705Z,10.60
2023-03-19T05:53:25.242Z,9.87
2023-03-19T05:55:53.753Z,9.03
2023-03-19T05:58:21.963Z,9.33
2023-03-19T06:00:56.527Z,9.63
2023-03-19T06:03:25.140Z,12.43
2023-03-19T06:05:55.937Z,12.17
2023-03-19T06:08:25.421Z,8.23
2023-03-19T06:10:54.725Z,7.27
2023-03-19T06:13:24.447Z,8.80
2023-03-19T06:15:52.765Z,10.73
2023-03-19T06:18:22.726Z,13.03
2023-03-19T06:20:51.798Z,9.53
2023-03-19T06:23:21.984Z,10.00
2023-03-19T06:25:53.306Z,9.17
2023-03-19T06:28:24.189Z,9.87
2023-03-19T06:30:55.027Z,13.40
2023-03-19T06:33:25.761Z,9.17
2023-03-19T06:35:56.432Z,26.97
2023-03-19T06:38:24.925Z,7.67
2023-03-19T06:40:54.417Z,9.70
2023-03-19T06:43:22.606Z,11.50
2023-03-19T06:45:52.388Z,10.13
2023-03-19T06:48:21.961Z,9.03
2023-03-19T06:50:55.438Z,9.27
2023-03-19T06:53:27.031Z,8.90
2023-03-19T06:55:56.968Z,7.97
2023-03-19T06:58:28.616Z,9.13
2023-03-19T07:00:57.197Z,9.13
2023-03-19T07:03:26.794Z,8.93
2023-03-19T07:05:55.063Z,14.73
2023-03-19T07:08:23.584Z,9.27
2023-03-19T07:10:51.335Z,8.43
2023-03-19T07:13:20.506Z,7.00
2023-03-19T07:15:50.771Z,8.60
2023-03-19T07:18:20.727Z,10.97
2023-03-19T07:20:49.590Z,9.10
2023-03-19T07:23:19.747Z,8.90
2023-03-19T07:25:51.303Z,12.20
2023-03-19T07:28:21.829Z,6.13
2023-03-19T07:30:53.079Z,10.00
2023-03-19T07:33:27.326Z,10.40
2023-03-19T07:35:55.971Z,7.67
2023-03-19T07:38:24.758Z,7.30
2023-03-19T07:41:01.799Z,9.13
2023-03-19T07:43:33.338Z,10.07
2023-03-19T07:46:01.955Z,8.70
2023-03-19T07:48:30.696Z,7.37
2023-03-19T07:50:59.337Z,11.80
2023-03-19T07:53:27.484Z,9.50
2023-03-19T07:55:55.778Z,9.23
2023-03-19T07:58:23.886Z,8.03
2023-03-19T08:00:55.004Z,8.13
2023-03-19T08:03:25.223Z,7.73
2023-03-19T08:05:53.868Z,7.57
2023-03-19T08:08:22.783Z,10.40
2023-03-19T08:10:53.461Z,9.67
2023-03-19T08:13:21.708Z,9.03
2023-03-19T08:15:53.554Z,8.10
2023-03-19T08:18:21.602Z,7.73
2023-03-19T08:20:50.292Z,7.67
2023-03-19T08:23:19.576Z,7.07
2023-03-19T08:25:48.235Z,8.67
2023-03-19T08:28:17.135Z,8.40
2023-03-19T08:30:45.460Z,7.90
2023-03-19T08:33:17.814Z,8.50
2023-03-19T08:35:51.629Z,8.03
2023-03-19T08:38:21.562Z,8.00
2023-03-19T08:40:49.459Z,7.13
2023-03-19T08:43:19.628Z,7.67
2023-03-19T08:45:47.787Z,8.37
2023-03-19T08:48:17.515Z,8.93
2023-03-19T08:50:51.522Z,8.03
2023-03-19T08:53:21.190Z,5.93
2023-03-19T08:55:54.641Z,6.90
2023-03-19T08:58:24.615Z,5.90
2023-03-19T09:00:53.581Z,7.27
2023-03-19T09:03:28.017Z,4.80
2023-03-19T09:06:08.505Z,6.73
2023-03-19T09:08:38.090Z,7.30
2023-03-19T09:11:08.178Z,6.27
2023-03-19T09:13:37.979Z,7.10
2023-03-19T09:16:07.262Z,7.23
2023-03-19T09:18:45.571Z,5.87
2023-03-19T09:21:19.593Z,8.90
2023-03-19T09:23:47.703Z,7.43
2023-03-19T09:26:18.442Z,5.20
2023-03-19T09:28:46.528Z,5.13
2023-03-19T09:31:15.435Z,7.33
2023-03-19T09:33:45.748Z,4.93
2023-03-19T09:36:13.687Z,5.47
2023-03-19T09:38:41.701Z,5.07
2023-03-19T09:41:12.328Z,6.30
2023-03-19T09:43:59.330Z,5.67
2023-03-19T09:46:34.264Z,5.70
2023-03-19T09:49:11.425Z,4.40
2023-03-19T09:51:46.406Z,5.03
2023-03-19T09:54:27.316Z,7.43
2023-03-19T09:56:58.721Z,4.60
2023-03-19T09:59:30.603Z,6.83
2023-03-19T10:02:07.071Z,6.27
2023-03-19T10:04:58.413Z,3.87
2023-03-19T10:07:41.637Z,4.27
2023-03-19T10:10:32.653Z,5.40
2023-03-19T10:13:18.145Z,6.53
2023-03-19T10:15:52.093Z,4.53
2023-03-19T10:18:26.723Z,5.57
2023-03-19T10:21:14.691Z,7.20
2023-03-19T10:23:50.754Z,6.03
2023-03-19T10:26:24.184Z,3.70
2023-03-19T10:29:05.052Z,4.90
2023-03-19T10:31:49.204Z,4.73
2023-03-19T10:34:35.763Z,4.17
2023-03-19T10:37:09.167Z,4.17
2023-03-19T10:39:43.983Z,4.83
2023-03-19T10:42:25.682Z,5.47
2023-03-19T10:45:10.096Z,6.03
2023-03-19T10:47:43.339Z,3.97
2023-03-19T10:50:20.213Z,3.70
2023-03-19T10:53:04.686Z,6.17
2023-03-19T10:55:48.205Z,2.93
2023-03-19T10:58:23.743Z,4.77
2023-03-19T11:01:05.360Z,3.07
2023-03-19T11:03:36.009Z,3.90
2023-03-19T11:06:31.169Z,3.47
2023-03-19T11:09:03.259Z,8.90
2023-03-19T11:11:44.916Z,4.03
2023-03-19T11:14:18.230Z,4.87
2023-03-19T11:16:57.750Z,3.00
2023-03-19T11:19:37.015Z,3.97
2023-03-19T11:22:18.865Z,4.43
2023-03-19T11:25:18.711Z,5.17
2023-03-19T11:28:10.010Z,3.77
2023-03-19T11:30:50.927Z,3.70
2023-03-19T11:33:36.447Z,7.50
2023-03-19T11:36:14.824Z,4.63
2023-03-19T11:39:01.831Z,4.80
2023-03-19T11:41:50.718Z,2.67
2023-03-19T11:44:28.115Z,4.07
2023-03-19T11:47:02.039Z,2.20
2023-03-19T11:50:01.606Z,3.30
2023-03-19T11:52:40.152Z,3.30
2023-03-19T11:55:22.605Z,3.63
2023-03-19T11:58:16.761Z,2.97
2023-03-19T12:00:48.740Z,3.57
2023-03-19T12:04:02.820Z,2.30
2023-03-19T12:06:45.387Z,3.77
2023-03-19T12:09:25.563Z,2.67
2023-03-19T12:11:56.926Z,2.50
2023-03-19T12:14:38.323Z,3.33
2023-03-19T12:17:24.188Z,2.60
2023-03-19T12:20:22.834Z,3.37
2023-03-19T12:23:08.323Z,3.20
2023-03-19T12:25:59.652Z,5.40
2023-03-19T12:28:31.622Z,5.57
2023-03-19T12:31:20.614Z,5.30
2023-03-19T12:33:54.417Z,4.50
2023-03-19T12:36:26.967Z,5.60
2023-03-19T12:39:04.275Z,4.40
2023-03-19T12:41:36.840Z,4.07
2023-03-19T12:44:11.704Z,5.47
2023-03-19T12:46:47.314Z,3.30
2023-03-19T12:49:19.298Z,10.30
2023-03-19T12:51:56.581Z,4.57
2023-03-19T12:54:29.273Z,5.80
2023-03-19T12:57:04.639Z,3.60
2023-03-19T12:59:38.798Z,5.73
2023-03-19T13:02:20.262Z,3.30
2023-03-19T13:04:54.474Z,5.37
2023-03-19T13:07:29.925Z,6.33
2023-03-19T13:10:05.962Z,5.67
2023-03-19T13:12:37.820Z,4.67
2023-03-19T13:15:11.427Z,4.63
2023-03-19T13:17:55.939Z,5.30
2023-03-19T13:20:33.055Z,5.03
2023-03-19T13:23:08.915Z,5.43
2023-03-19T13:25:41.184Z,5.00
2023-03-19T13:28:12.919Z,5.50
2023-03-19T13:30:42.459Z,5.50
2023-03-19T13:33:24.598Z,5.17
2023-03-19T13:35:56.163Z,3.00
2023-03-19T13:38:30.215Z,2.93
2023-03-19T13:41:00.318Z,3.23
2023-03-19T13:43:46.944Z,5.10
2023-03-19T13:46:45.116Z,2.33
2023-03-19T13:49:35.365Z,3.83
2023-03-19T13:52:24.423Z,3.17
2023-03-19T13:54:58.857Z,3.33
2023-03-19T13:57:35.885Z,2.77
2023-03-19T14:00:41.046Z,2.90
2023-03-19T14:03:29.138Z,3.53
2023-03-19T14:06:00.647Z,3.10
2023-03-19T14:08:34.585Z,4.43
2023-03-19T14:11:05.684Z,3.33
2023-03-19T14:13:40.884Z,4.60
2023-03-19T14:16:18.510Z,2.30
2023-03-19T14:18:52.222Z,4.03
2023-03-19T14:21:35.909Z,2.83
2023-03-19T14:27:26.913Z,2.17
2023-03-19T14:30:00.684Z,1.60
2023-03-19T14:32:41.069Z,1.63
2023-03-19T14:35:14.476Z,1.50
2023-03-19T14:37:50.409Z,1.83
2023-03-19T14:40:22.452Z,1.67
2023-03-19T14:43:03.900Z,1.93
2023-03-19T14:45:51.839Z,2.20
2023-03-19T14:48:52.639Z,2.13
2023-03-19T14:51:47.226Z,1.67
2023-03-19T14:54:27.988Z,1.50
2023-03-19T14:57:00.905Z,2.83
2023-03-19T14:59:38.949Z,1.80
2023-03-19T15:02:29.275Z,1.60
2023-03-19T15:05:00.825Z,1.70
2023-03-19T15:07:35.113Z,2.10
2023-03-19T15:10:08.228Z,2.77
2023-03-19T15:13:14.957Z,2.77
2023-03-19T15:16:08.509Z,3.53
2023-03-19T15:18:39.640Z,2.57
2023-03-19T15:21:10.900Z,2.13
2023-03-19T15:23:42.947Z,2.03
2023-03-19T15:26:18.843Z,3.00
2023-03-19T15:28:49.620Z,1.80
2023-03-19T15:31:31.808Z,2.53
2023-03-19T15:34:19.308Z,2.43
2023-03-19T15:36:48.456Z,2.53
2023-03-19T15:39:18.802Z,2.73
2023-03-19T15:41:53.043Z,3.17
2023-03-19T15:44:30.172Z,1.83
2023-03-19T15:47:10.694Z,3.47
2023-03-19T15:49:41.248Z,1.33
2023-03-19T15:52:13.770Z,3.13
2023-03-19T15:54:43.519Z,2.43
2023-03-19T15:57:19.886Z,1.60
2023-03-19T15:59:48.160Z,2.20
2023-03-19T16:02:27.647Z,2.47
2023-03-19T16:05:22.492Z,2.43
2023-03-19T16:07:56.442Z,1.70
2023-03-19T16:10:36.027Z,1.90
2023-03-19T16:13:23.393Z,2.50
2023-03-19T16:15:58.536Z,2.57
2023-03-19T16:18:29.884Z,2.67
2023-03-19T16:21:09.044Z,2.07
2023-03-19T16:23:45.033Z,3.40
2023-03-19T16:26:33.136Z,1.80
2023-03-19T16:29:07.835Z,2.50
2023-03-19T16:31:45.899Z,2.67
2023-03-19T16:34:30.659Z,2.60
2023-03-19T16:37:01.593Z,1.90
2023-03-19T16:39:37.886Z,3.77
2023-03-19T16:42:27.919Z,1.27
2023-03-19T16:44:57.861Z,1.63
2023-03-19T16:47:29.985Z,1.93
2023-03-19T16:49:57.939Z,2.33
2023-03-19T16:52:29.108Z,2.40
2023-03-19T16:55:00.469Z,1.60
2023-03-19T16:57:32.018Z,4.57
2023-03-19T17:00:10.418Z,2.93
2023-03-19T17:02:41.289Z,2.27
2023-03-19T17:05:16.224Z,1.63
2023-03-19T17:07:46.463Z,1.57
2023-03-19T17:10:16.202Z,1.60
2023-03-19T17:12:47.759Z,1.73
2023-03-19T17:15:27.168Z,1.97
2023-03-19T17:17:57.847Z,1.50
2023-03-19T17:20:31.687Z,1.67
2023-03-19T17:23:00.370Z,2.27
2023-03-19T17:25:28.503Z,2.43
2023-03-19T17:27:59.053Z,3.33
2023-03-19T17:30:30.993Z,3.27
2023-03-19T17:33:00.641Z,3.67
2023-03-19T17:35:29.219Z,1.43
2023-03-19T17:38:02.954Z,2.43
2023-03-19T17:40:31.427Z,2.83
2023-03-19T17:43:03.974Z,2.07
2023-03-19T17:45:34.040Z,2.00
2023-03-19T17:48:02.133Z,2.63
2023-03-19T17:50:34.288Z,2.03
2023-03-19T17:53:02.758Z,5.13
2023-03-19T17:55:31.505Z,2.47
2023-03-19T17:58:00.790Z,3.23
2023-03-19T18:00:34.196Z,2.53
2023-03-19T18:03:04.264Z,3.77
2023-03-19T18:05:33.838Z,2.50
2023-03-19T18:08:05.104Z,3.03
2023-03-19T18:10:34.748Z,2.53
2023-03-19T18:13:02.946Z,3.03
2023-03-19T18:15:35.317Z,2.97
2023-03-19T18:18:07.729Z,3.57
2023-03-19T18:20:38.941Z,3.57
2023-03-19T18:23:08.078Z,3.57
2023-03-19T18:25:36.199Z,4.07
2023-03-19T18:28:05.300Z,6.50
2023-03-19T18:33:46.197Z,6.10
2023-03-19T18:36:19.900Z,5.60
2023-03-19T18:38:53.577Z,7.17
2023-03-19T18:41:48.901Z,6.13
2023-03-19T18:44:27.252Z,4.90
2023-03-19T18:46:59.244Z,6.27
2023-03-19T18:49:28.692Z,8.43
2023-03-19T18:52:04.816Z,6.57
2023-03-19T18:54:36.878Z,8.43
2023-03-19T18:57:11.109Z,8.00
2023-03-19T18:59:42.854Z,8.80
2023-03-19T19:02:33.160Z,6.97
2023-03-19T19:05:06.092Z,10.87
2023-03-19T19:07:35.537Z,7.33
2023-03-19T19:10:07.546Z,10.53
2023-03-19T19:12:39.404Z,5.93
2023-03-19T19:15:19.475Z,6.77
2023-03-19T19:17:54.625Z,8.07
2023-03-19T19:20:26.734Z,7.67
2023-03-19T19:22:57.035Z,8.20
2023-03-19T19:25:26.840Z,6.60
2023-03-19T19:27:59.220Z,5.23
2023-03-19T19:30:28.478Z,4.63
2023-03-19T19:32:58.501Z,5.47
2023-03-19T19:35:29.174Z,13.30
2023-03-19T19:38:00.134Z,6.37
2023-03-19T19:40:31.779Z,8.63
2023-03-19T19:43:03.841Z,11.40
2023-03-19T19:45:36.389Z,8.23
2023-03-19T19:48:13.861Z,10.27
2023-03-19T19:50:45.217Z,13.00
2023-03-19T19:53:21.301Z,12.43
2023-03-19T19:56:02.865Z,10.70
2023-03-19T19:58:36.914Z,11.47
2023-03-19T20:01:09.342Z,13.63
2023-03-19T20:03:40.636Z,14.20
2023-03-19T20:06:11.360Z,11.70
2023-03-19T20:08:44.333Z,10.87
2023-03-19T20:11:21.350Z,10.47
2023-03-19T20:13:54.494Z,10.07
2023-03-19T20:16:37.236Z,6.20
2023-03-19T20:19:05.124Z,9.20
2023-03-19T20:21:37.660Z,6.60
2023-03-19T20:24:07.182Z,9.03
2023-03-19T20:26:39.174Z,10.00
2023-03-19T20:29:08.857Z,9.80
2023-03-19T20:31:37.508Z,9.80
2023-03-19T20:34:07.248Z,9.30
2023-03-19T20:36:39.322Z,9.07
2023-03-19T20:39:18.985Z,10.60
2023-03-19T20:41:49.367Z,6.97
2023-03-19T20:44:24.552Z,7.57
2023-03-19T20:46:54.236Z,8.17
2023-03-19T20:49:23.669Z,7.60
2023-03-19T20:51:53.740Z,5.43
2023-03-19T20:54:22.668Z,5.80
2023-03-19T20:56:54.426Z,7.70
2023-03-19T20:59:22.857Z,6.00
2023-03-19T21:01:57.758Z,6.90
2023-03-19T21:04:26.084Z,7.57
2023-03-19T21:06:56.377Z,7.03
2023-03-19T21:09:27.634Z,6.07
2023-03-19T21:11:55.767Z,4.97
2023-03-19T21:14:29.658Z,6.33
2023-03-19T21:16:57.911Z,5.00
2023-03-19T21:19:26.764Z,5.73
2023-03-19T21:21:56.255Z,5.00
2023-03-19T21:24:25.524Z,5.00
2023-03-19T21:26:56.894Z,6.37
2023-03-19T21:29:30.289Z,4.87
2023-03-19T21:32:01.701Z,5.77
2023-03-19T21:34:30.069Z,5.70
2023-03-19T21:37:01.926Z,4.67
2023-03-19T21:39:29.931Z,6.23
2023-03-19T21:41:58.888Z,6.40
2023-03-19T21:44:31.363Z,5.63
2023-03-19T21:47:01.542Z,7.23
2023-03-19T21:49:31.486Z,6.43
2023-03-19T21:52:05.643Z,6.90
2023-03-19T21:54:35.175Z,6.40
2023-03-19T21:57:03.159Z,7.10
2023-03-19T21:59:34.347Z,4.83
2023-03-19T22:02:04.276Z,5.67
2023-03-19T22:04:36.116Z,7.77
2023-03-19T22:07:07.295Z,5.10
2023-03-19T22:09:36.932Z,23.27
2023-03-19T22:12:06.869Z,5.37
2023-03-19T22:14:36.481Z,6.87
2023-03-19T22:17:06.659Z,4.87
2023-03-19T22:19:34.786Z,6.17
2023-03-19T22:22:04.473Z,5.60
2023-03-19T22:24:36.829Z,5.37
2023-03-19T22:27:06.113Z,5.10
2023-03-19T22:29:35.520Z,5.17
2023-03-19T22:32:04.670Z,5.57
2023-03-19T22:34:33.157Z,5.57
2023-03-19T22:37:01.252Z,7.03
2023-03-19T22:39:30.125Z,4.83
2023-03-19T22:42:02.755Z,4.43
2023-03-19T22:44:32.392Z,4.67
2023-03-19T22:47:08.738Z,7.00
2023-03-19T22:49:43.546Z,6.60
2023-03-19T22:52:13.206Z,6.30
2023-03-19T22:54:42.386Z,4.67
2023-03-19T22:57:15.450Z,5.03
2023-03-19T22:59:43.985Z,6.63
2023-03-19T23:02:15.054Z,6.77
2023-03-19T23:04:58.642Z,5.43
2023-03-19T23:07:27.178Z,5.97
2023-03-19T23:09:55.114Z,6.43
2023-03-19T23:12:24.789Z,5.57
2023-03-19T23:14:53.871Z,6.40
2023-03-19T23:17:21.836Z,5.90
2023-03-19T23:19:50.610Z,6.47
2023-03-19T23:22:22.383Z,5.73
2023-03-19T23:24:53.322Z,6.00
2023-03-19T23:27:27.625Z,7.23
2023-03-19T23:29:58.201Z,6.30
2023-03-19T23:32:34.631Z,9.13
2023-03-19T23:35:02.490Z,6.20
2023-03-19T23:37:31.362Z,6.50
2023-03-19T23:39:59.558Z,6.37
2023-03-19T23:42:33.506Z,8.63
2023-03-19T23:45:06.924Z,6.33
2023-03-19T23:47:36.266Z,6.23
2023-03-19T23:50:05.978Z,7.20
2023-03-19T23:52:34.141Z,5.33
2023-03-19T23:55:04.429Z,5.57
2023-03-19T23:57:40.768Z,6.23
